createdAt,value
2022-11-08T00:00:16.627Z,42.31
2022-11-08T00:02:45.114Z,42.10
2022-11-08T00:05:31.842Z,42.12
2022-11-08T00:08:21.619Z,42.17
2022-11-08T00:11:07.888Z,42.42
2022-11-08T00:13:54.592Z,42.86
2022-11-08T00:16:22.881Z,42.50
2022-11-08T00:18:51.227Z,42.39
2022-11-08T00:21:19.102Z,42.39
2022-11-08T00:23:47.220Z,42.42
2022-11-08T00:26:15.567Z,42.59
2022-11-08T00:28:43.114Z,42.49
2022-11-08T00:31:10.237Z,42.37
2022-11-08T00:33:37.626Z,42.31
2022-11-08T00:36:04.925Z,42.18
2022-11-08T00:38:32.046Z,42.20
2022-11-08T00:40:59.468Z,42.11
2022-11-08T00:43:26.587Z,42.01
2022-11-08T00:45:53.716Z,41.90
2022-11-08T00:48:21.277Z,41.95
2022-11-08T00:50:48.486Z,42.18
2022-11-08T00:53:15.630Z,42.24
2022-11-08T00:55:43.070Z,42.33
2022-11-08T00:58:11.595Z,42.28
2022-11-08T01:00:38.700Z,42.65
2022-11-08T01:03:21.551Z,42.47
2022-11-08T01:05:48.915Z,42.42
2022-11-08T01:08:16.777Z,42.50
2022-11-08T01:10:45.008Z,42.58
2022-11-08T01:13:12.329Z,42.60
2022-11-08T01:15:40.873Z,42.50
2022-11-08T01:18:08.491Z,42.39
2022-11-08T01:20:41.638Z,42.33
2022-11-08T01:23:09.153Z,42.32
2022-11-08T01:25:37.368Z,42.26
2022-11-08T01:28:04.793Z,42.19
2022-11-08T01:30:34.733Z,42.16
2022-11-08T01:33:01.830Z,42.18
2022-11-08T01:35:30.200Z,41.95
2022-11-08T01:37:57.720Z,41.94
2022-11-08T01:40:25.329Z,41.95
2022-11-08T01:42:52.653Z,41.72
2022-11-08T01:45:38.736Z,41.57
2022-11-08T01:48:05.857Z,41.54
2022-11-08T01:50:33.238Z,41.66
2022-11-08T01:53:00.358Z,41.77
2022-11-08T01:55:30.814Z,41.85
2022-11-08T01:57:58.133Z,41.92
2022-11-08T02:00:25.292Z,42.00
2022-11-08T02:02:56.873Z,41.90
2022-11-08T02:05:26.943Z,41.82
2022-11-08T02:07:55.435Z,41.79
2022-11-08T02:10:23.568Z,41.82
2022-11-08T02:12:51.082Z,41.94
2022-11-08T02:15:18.608Z,42.05
2022-11-08T02:17:45.746Z,41.86
2022-11-08T02:20:12.863Z,41.67
2022-11-08T02:22:41.476Z,41.64
2022-11-08T02:25:08.596Z,41.74
2022-11-08T02:27:36.770Z,41.71
2022-11-08T02:30:04.338Z,41.48
2022-11-08T02:32:38.327Z,41.22
2022-11-08T02:35:06.338Z,41.30
2022-11-08T02:37:33.468Z,41.74
2022-11-08T02:40:00.588Z,41.62
2022-11-08T02:42:28.032Z,41.78
2022-11-08T02:44:55.160Z,41.62
2022-11-08T02:47:24.190Z,41.35
2022-11-08T02:49:51.584Z,41.55
2022-11-08T02:52:18.694Z,41.60
2022-11-08T02:54:45.784Z,41.75
2022-11-08T02:57:13.196Z,41.83
2022-11-08T02:59:40.332Z,41.68
2022-11-08T03:02:07.586Z,41.69
2022-11-08T03:04:35.076Z,41.66
2022-11-08T03:07:02.209Z,41.53
2022-11-08T03:09:29.323Z,41.47
2022-11-08T03:27:15.286Z,41.43
2022-11-08T03:29:42.683Z,41.65
2022-11-08T03:32:09.782Z,41.39
2022-11-08T03:34:36.889Z,41.06
2022-11-08T03:37:07.300Z,40.99
2022-11-08T03:39:34.411Z,41.12
2022-11-08T03:42:03.209Z,41.24
2022-11-08T03:44:30.919Z,41.43
2022-11-08T03:46:58.543Z,41.22
2022-11-08T03:49:26.733Z,41.18
2022-11-08T03:51:54.361Z,41.09
2022-11-08T03:54:21.496Z,41.21
2022-11-08T03:56:48.624Z,41.17
2022-11-08T03:59:16.056Z,41.28
2022-11-08T04:01:43.260Z,40.93
2022-11-08T04:04:10.728Z,41.11
2022-11-08T04:06:37.844Z,41.11
2022-11-08T04:09:07.408Z,41.37
2022-11-08T04:11:53.572Z,41.37
2022-11-08T04:14:39.240Z,41.57
2022-11-08T04:17:06.618Z,41.91
2022-11-08T04:19:52.529Z,42.26
2022-11-08T04:22:19.914Z,42.23
2022-11-08T04:24:47.039Z,42.47
2022-11-08T04:27:14.150Z,42.27
2022-11-08T04:29:41.550Z,42.47
2022-11-08T04:32:08.676Z,42.63
2022-11-08T04:34:35.800Z,42.72
2022-11-08T04:37:04.222Z,42.51
2022-11-08T04:39:31.343Z,42.40
2022-11-08T04:42:02.097Z,42.89
2022-11-08T04:44:30.054Z,43.23
2022-11-08T04:46:57.174Z,44.06
2022-11-08T04:49:24.300Z,43.47
2022-11-08T04:51:51.675Z,43.51
2022-11-08T04:54:18.804Z,43.55
2022-11-08T04:56:45.915Z,43.48
2022-11-08T04:59:13.285Z,44.14
2022-11-08T05:01:40.526Z,43.95
2022-11-08T05:04:07.739Z,43.47
2022-11-08T05:06:35.112Z,44.15
2022-11-08T05:09:02.220Z,44.55
2022-11-08T05:11:29.828Z,44.45
2022-11-08T05:13:57.282Z,44.07
2022-11-08T05:16:25.528Z,43.76
2022-11-08T05:18:52.890Z,43.39
2022-11-08T05:21:39.578Z,43.01
2022-11-08T05:24:07.348Z,43.48
2022-11-08T05:26:35.554Z,45.73
2022-11-08T05:29:02.679Z,47.28
2022-11-08T05:31:29.804Z,46.56
2022-11-08T05:33:57.164Z,45.12
2022-11-08T05:36:24.302Z,44.32
2022-11-08T05:38:51.433Z,44.42
2022-11-08T05:41:19.582Z,44.09
2022-11-08T05:43:47.691Z,44.58
2022-11-08T05:46:15.019Z,43.65
2022-11-08T05:48:43.260Z,43.61
2022-11-08T05:51:12.016Z,43.48
2022-11-08T05:53:39.620Z,43.45
2022-11-08T05:56:07.229Z,43.84
2022-11-08T05:58:35.116Z,43.97
2022-11-08T06:01:03.637Z,43.16
2022-11-08T06:03:32.139Z,43.69
2022-11-08T06:06:06.473Z,43.90
2022-11-08T06:08:33.842Z,45.49
2022-11-08T06:11:03.915Z,44.26
2022-11-08T06:13:31.455Z,44.14
2022-11-08T06:16:06.107Z,44.24
2022-11-08T06:18:33.423Z,43.79
2022-11-08T06:21:01.772Z,43.38
2022-11-08T06:23:28.982Z,44.61
2022-11-08T06:25:56.585Z,43.40
2022-11-08T06:28:24.146Z,43.93
2022-11-08T06:30:51.416Z,44.48
2022-11-08T06:33:19.168Z,44.09
2022-11-08T06:35:47.055Z,44.97
2022-11-08T06:38:14.171Z,45.07
2022-11-08T06:40:41.368Z,45.23
2022-11-08T06:43:14.963Z,44.60
2022-11-08T06:45:45.239Z,44.86
2022-11-08T06:48:12.608Z,45.80
2022-11-08T06:50:39.719Z,47.56
2022-11-08T06:53:07.817Z,46.68
2022-11-08T06:55:35.319Z,47.08
2022-11-08T06:58:02.606Z,49.30
2022-11-08T07:00:29.737Z,49.67
2022-11-08T07:02:58.262Z,49.29
2022-11-08T07:05:25.822Z,50.45
2022-11-08T07:07:53.291Z,48.93
2022-11-08T07:10:21.563Z,48.67
2022-11-08T07:12:48.874Z,47.40
2022-11-08T07:15:16.164Z,47.14
2022-11-08T07:17:43.572Z,46.59
2022-11-08T07:20:11.960Z,47.24
2022-11-08T07:22:39.940Z,46.80
2022-11-08T07:25:07.689Z,45.77
2022-11-08T07:27:34.784Z,46.34
2022-11-08T07:30:01.914Z,45.85
2022-11-08T07:32:29.324Z,46.91
2022-11-08T07:34:56.723Z,50.19
2022-11-08T07:37:23.832Z,48.82
2022-11-08T07:39:51.193Z,47.94
2022-11-08T07:42:18.318Z,50.82
2022-11-08T07:44:45.800Z,48.91
2022-11-08T07:47:13.215Z,50.16
2022-11-08T07:49:40.318Z,52.00
2022-11-08T07:52:12.530Z,53.65
2022-11-08T07:55:08.504Z,51.89
2022-11-08T07:57:40.552Z,49.80
2022-11-08T08:00:20.150Z,48.71
2022-11-08T08:03:14.023Z,51.94
2022-11-08T08:05:43.611Z,53.01
2022-11-08T08:08:26.369Z,51.39
2022-11-08T08:11:03.219Z,49.61
2022-11-08T08:13:49.929Z,49.03
2022-11-08T08:16:36.896Z,49.54
2022-11-08T08:19:28.995Z,49.64
2022-11-08T08:21:56.137Z,51.56
2022-11-08T08:24:26.660Z,50.57
2022-11-08T08:27:12.056Z,51.70
2022-11-08T08:29:40.968Z,50.57
2022-11-08T08:32:31.321Z,50.58
2022-11-08T08:34:59.403Z,51.08
2022-11-08T08:37:26.552Z,52.25
2022-11-08T08:40:13.048Z,52.01
2022-11-08T08:44:04.250Z,52.35
2022-11-08T08:46:57.565Z,56.40
2022-11-08T08:49:24.748Z,52.12
2022-11-08T08:51:58.053Z,51.78
2022-11-08T08:54:47.867Z,50.63
2022-11-08T08:57:16.263Z,51.60
2022-11-08T09:02:41.468Z,54.23
2022-11-08T09:05:12.960Z,53.09
2022-11-08T09:07:42.405Z,53.63
2022-11-08T09:10:18.753Z,53.52
2022-11-08T09:12:46.122Z,52.96
2022-11-08T09:15:13.235Z,53.29
2022-11-08T09:17:40.340Z,52.47
2022-11-08T09:20:08.087Z,57.03
2022-11-08T09:22:35.316Z,57.06
2022-11-08T09:25:02.476Z,59.31
2022-11-08T09:27:30.360Z,52.95
2022-11-08T09:29:57.911Z,52.81
2022-11-08T09:32:46.324Z,52.30
2022-11-08T09:35:12.938Z,52.47
2022-11-08T09:37:41.492Z,50.61
2022-11-08T09:40:11.115Z,51.93
2022-11-08T09:42:57.201Z,51.03
2022-11-08T09:45:29.172Z,48.86
2022-11-08T09:48:00.173Z,50.41
2022-11-08T09:50:30.860Z,50.36
2022-11-08T09:52:58.171Z,51.79
2022-11-08T09:55:26.966Z,52.58
2022-11-08T09:58:23.434Z,55.92
2022-11-08T10:00:51.038Z,53.33
2022-11-08T10:03:19.150Z,53.19
2022-11-08T10:05:52.397Z,52.32
2022-11-08T10:08:26.560Z,50.76
2022-11-08T10:10:57.245Z,50.11
2022-11-08T10:13:39.284Z,50.73
2022-11-08T10:16:09.451Z,49.02
2022-11-08T10:18:51.850Z,51.83
2022-11-08T10:21:18.919Z,51.74
2022-11-08T10:23:48.023Z,50.23
2022-11-08T10:26:16.897Z,49.16
2022-11-08T10:28:47.503Z,47.84
2022-11-08T10:31:14.863Z,47.35
2022-11-08T10:33:52.692Z,50.77
2022-11-08T10:36:27.892Z,52.24
2022-11-08T10:39:01.363Z,50.02
2022-11-08T10:41:31.711Z,52.20
2022-11-08T10:44:00.780Z,51.89
2022-11-08T10:46:36.599Z,51.56
2022-11-08T10:49:13.368Z,51.96
2022-11-08T10:51:40.512Z,50.64
2022-11-08T10:54:08.540Z,52.44
2022-11-08T10:56:53.082Z,51.80
2022-11-08T10:59:30.907Z,51.11
2022-11-08T11:01:58.096Z,52.71
2022-11-08T11:04:32.351Z,55.94
2022-11-08T11:07:02.803Z,56.56
2022-11-08T11:09:30.285Z,57.70
2022-11-08T11:11:58.304Z,54.75
2022-11-08T11:14:25.475Z,57.58
2022-11-08T11:16:57.036Z,57.42
2022-11-08T11:19:24.945Z,56.69
2022-11-08T11:21:55.105Z,59.55
2022-11-08T11:24:22.235Z,57.61
2022-11-08T11:27:01.555Z,55.54
2022-11-08T11:29:28.955Z,57.56
2022-11-08T11:31:56.054Z,55.33
2022-11-08T11:34:32.414Z,57.88
2022-11-08T11:37:03.479Z,58.90
2022-11-08T11:39:30.539Z,57.40
2022-11-08T11:42:31.116Z,59.36
2022-11-08T11:45:03.373Z,55.81
2022-11-08T11:47:35.517Z,56.17
2022-11-08T11:50:06.149Z,54.26
2022-11-08T11:52:33.284Z,58.18
2022-11-08T11:55:00.399Z,56.27
2022-11-08T11:57:33.768Z,53.48
2022-11-08T12:00:05.338Z,55.19
2022-11-08T12:02:54.230Z,56.14
2022-11-08T12:05:28.583Z,55.17
2022-11-08T12:07:58.401Z,56.52
2022-11-08T12:10:28.924Z,58.55
2022-11-08T12:13:01.085Z,58.81
2022-11-08T12:15:48.691Z,56.65
2022-11-08T12:18:43.042Z,57.37
2022-11-08T12:21:23.218Z,57.64
2022-11-08T12:23:53.055Z,56.55
2022-11-08T12:26:20.407Z,54.32
2022-11-08T12:28:56.414Z,58.81
2022-11-08T12:31:25.616Z,58.70
2022-11-08T12:33:56.803Z,55.86
2022-11-08T12:36:34.183Z,55.58
2022-11-08T12:39:01.209Z,55.83
2022-11-08T12:41:38.894Z,56.56
2022-11-08T12:44:24.058Z,56.65
2022-11-08T12:47:00.476Z,55.89
2022-11-08T12:49:33.106Z,54.35
2022-11-08T12:52:23.192Z,53.68
2022-11-08T12:54:53.955Z,54.70
2022-11-08T12:57:27.592Z,55.66
2022-11-08T13:00:00.709Z,53.73
2022-11-08T13:02:28.547Z,52.29
2022-11-08T13:04:56.189Z,52.03
2022-11-08T13:07:42.026Z,51.25
2022-11-08T13:10:23.708Z,52.02
2022-11-08T13:13:08.421Z,50.31
2022-11-08T13:15:35.822Z,52.33
2022-11-08T13:18:11.836Z,53.15
2022-11-08T13:20:42.337Z,51.65
2022-11-08T13:23:12.663Z,51.63
2022-11-08T13:25:40.733Z,53.40
2022-11-08T13:28:26.626Z,53.69
2022-11-08T13:30:56.404Z,51.46
2022-11-08T13:33:27.271Z,52.09
2022-11-08T13:35:57.588Z,51.21
2022-11-08T13:38:30.787Z,52.17
2022-11-08T13:41:07.168Z,53.24
2022-11-08T13:43:34.713Z,51.90
2022-11-08T13:46:20.418Z,51.18
2022-11-08T13:49:13.841Z,50.83
2022-11-08T13:51:41.796Z,51.66
2022-11-08T13:54:21.187Z,55.19
2022-11-08T13:56:49.599Z,53.94
2022-11-08T13:59:32.541Z,53.01
2022-11-08T14:02:05.903Z,50.76
2022-11-08T14:04:35.478Z,52.40
2022-11-08T14:07:25.245Z,54.24
2022-11-08T14:09:59.228Z,53.16
2022-11-08T14:12:34.540Z,54.71
2022-11-08T14:15:10.288Z,54.86
2022-11-08T14:17:40.912Z,54.03
2022-11-08T14:20:15.796Z,52.81
2022-11-08T14:22:47.491Z,54.93
2022-11-08T14:25:19.006Z,54.03
2022-11-08T14:27:46.119Z,52.78
2022-11-08T14:30:18.090Z,53.31
2022-11-08T14:32:45.795Z,53.76
2022-11-08T14:35:12.861Z,51.84
2022-11-08T14:37:41.806Z,50.70
2022-11-08T14:40:16.546Z,50.44
2022-11-08T14:42:44.178Z,50.40
2022-11-08T14:45:12.711Z,52.78
2022-11-08T14:47:42.390Z,50.67
2022-11-08T14:50:16.829Z,49.47
2022-11-08T14:52:44.439Z,50.00
2022-11-08T14:55:12.591Z,49.20
2022-11-08T14:57:46.732Z,48.90
2022-11-08T15:00:14.350Z,48.85
2022-11-08T15:02:42.222Z,49.95
2022-11-08T15:05:25.382Z,49.74
2022-11-08T15:07:52.900Z,49.01
2022-11-08T15:10:20.392Z,48.46
2022-11-08T15:12:47.705Z,51.54
2022-11-08T15:15:19.717Z,51.91
2022-11-08T15:17:46.972Z,53.06
2022-11-08T15:20:14.557Z,54.20
2022-11-08T15:22:44.075Z,51.90
2022-11-08T15:25:17.233Z,52.99
2022-11-08T15:27:48.400Z,56.63
2022-11-08T15:30:16.548Z,58.78
2022-11-08T15:32:43.914Z,58.71
2022-11-08T15:35:21.670Z,57.79
2022-11-08T15:37:51.675Z,54.45
2022-11-08T15:40:21.671Z,57.89
2022-11-08T15:42:50.173Z,57.08
2022-11-08T15:45:17.239Z,58.77
2022-11-08T15:47:46.219Z,57.40
2022-11-08T15:50:20.896Z,60.13
2022-11-08T15:52:50.421Z,58.44
2022-11-08T15:55:24.796Z,56.17
2022-11-08T15:57:52.756Z,59.33
2022-11-08T16:00:24.411Z,58.79
2022-11-08T16:02:52.520Z,58.95
2022-11-08T16:05:23.232Z,60.62
2022-11-08T16:07:50.622Z,63.10
2022-11-08T16:10:19.234Z,63.67
2022-11-08T16:12:47.190Z,64.03
2022-11-08T16:15:15.392Z,62.81
2022-11-08T16:17:43.721Z,62.27
2022-11-08T16:20:17.354Z,63.00
2022-11-08T16:22:45.642Z,63.62
2022-11-08T16:25:13.078Z,63.83
2022-11-08T16:27:41.354Z,64.89
2022-11-08T16:30:13.303Z,66.52
2022-11-08T16:32:40.637Z,65.51
2022-11-08T16:35:08.742Z,65.59
2022-11-08T16:37:38.352Z,65.84
2022-11-08T16:40:24.715Z,65.36
2022-11-08T16:42:53.327Z,62.28
2022-11-08T16:45:37.241Z,62.90
2022-11-08T16:48:13.726Z,64.60
2022-11-08T16:50:41.152Z,63.90
2022-11-08T16:53:15.689Z,64.64
2022-11-08T16:55:52.386Z,64.18
2022-11-08T16:58:20.202Z,64.77
2022-11-08T17:00:50.551Z,66.32
2022-11-08T17:03:19.980Z,67.07
2022-11-08T17:05:47.691Z,65.85
2022-11-08T17:08:15.610Z,65.00
2022-11-08T17:10:43.301Z,65.48
2022-11-08T17:13:15.199Z,64.56
2022-11-08T17:15:42.732Z,67.21
2022-11-08T17:18:17.716Z,63.53
2022-11-08T17:20:45.561Z,62.04
2022-11-08T17:23:12.930Z,64.78
2022-11-08T17:25:43.051Z,61.84
2022-11-08T17:28:11.440Z,63.30
2022-11-08T17:30:44.539Z,62.83
2022-11-08T17:33:13.690Z,62.36
2022-11-08T17:35:44.750Z,61.92
2022-11-08T17:38:13.067Z,61.83
2022-11-08T17:40:42.321Z,62.92
2022-11-08T17:43:10.197Z,64.61
2022-11-08T17:45:39.508Z,64.46
2022-11-08T17:48:07.153Z,64.30
2022-11-08T17:50:34.883Z,65.53
2022-11-08T17:53:03.171Z,65.78
2022-11-08T17:55:30.946Z,65.06
2022-11-08T17:57:59.157Z,63.22
2022-11-08T18:00:27.085Z,61.97
2022-11-08T18:02:55.323Z,62.94
2022-11-08T18:05:24.068Z,63.79
2022-11-08T18:07:52.167Z,61.93
2022-11-08T18:10:20.532Z,63.09
2022-11-08T18:12:48.303Z,62.47
2022-11-08T18:15:18.681Z,64.40
2022-11-08T18:17:48.904Z,65.75
2022-11-08T18:20:16.682Z,62.76
2022-11-08T18:22:44.676Z,63.99
2022-11-08T18:25:12.745Z,60.89
2022-11-08T18:27:41.678Z,62.25
2022-11-08T18:30:09.825Z,62.24
2022-11-08T18:32:38.692Z,60.07
2022-11-08T18:35:06.790Z,62.18
2022-11-08T18:37:34.461Z,60.92
2022-11-08T18:40:02.513Z,62.38
2022-11-08T18:42:30.811Z,63.32
2022-11-08T18:45:01.457Z,61.48
2022-11-08T18:47:29.724Z,61.96
2022-11-08T18:50:01.703Z,62.11
2022-11-08T18:52:31.597Z,62.85
2022-11-08T18:54:58.962Z,59.83
2022-11-08T18:57:27.749Z,59.57
2022-11-08T18:59:59.868Z,60.37
2022-11-08T19:02:28.965Z,59.55
2022-11-08T19:04:57.676Z,59.52
2022-11-08T19:07:28.481Z,62.05
2022-11-08T19:09:56.180Z,60.48
2022-11-08T19:12:23.937Z,58.34
2022-11-08T19:14:51.738Z,58.17
2022-11-08T19:17:18.971Z,58.87
2022-11-08T19:19:47.010Z,61.72
2022-11-08T19:22:16.140Z,59.90
2022-11-08T19:24:43.824Z,62.62
2022-11-08T19:27:11.216Z,58.41
2022-11-08T19:29:38.952Z,61.99
2022-11-08T19:32:08.621Z,61.67
2022-11-08T19:34:36.736Z,61.03
2022-11-08T19:37:04.336Z,60.58
2022-11-08T19:39:36.646Z,59.39
2022-11-08T19:42:04.613Z,60.19
2022-11-08T19:44:33.186Z,61.06
2022-11-08T19:47:00.798Z,62.54
2022-11-08T19:49:29.209Z,58.35
2022-11-08T19:52:02.695Z,58.35
2022-11-08T19:54:30.399Z,56.58
2022-11-08T19:57:06.555Z,59.82
2022-11-08T19:59:34.177Z,60.49
2022-11-08T20:02:01.893Z,60.21
2022-11-08T20:04:30.108Z,56.95
2022-11-08T20:06:57.794Z,58.74
2022-11-08T20:09:30.280Z,59.67
2022-11-08T20:11:59.935Z,60.84
2022-11-08T20:14:28.829Z,64.19
2022-11-08T20:16:59.930Z,60.77
2022-11-08T20:19:30.226Z,60.60
2022-11-08T20:21:58.220Z,61.06
2022-11-08T20:24:25.994Z,61.31
2022-11-08T20:26:54.954Z,59.07
2022-11-08T20:29:25.691Z,58.48
2022-11-08T20:31:53.848Z,58.42
2022-11-08T20:34:25.833Z,59.91
2022-11-08T20:36:53.599Z,60.49
2022-11-08T20:39:21.001Z,60.82
2022-11-08T20:41:49.344Z,60.17
2022-11-08T20:44:17.200Z,58.47
2022-11-08T20:46:45.302Z,61.05
2022-11-08T20:49:13.568Z,59.47
2022-11-08T20:51:41.283Z,57.14
2022-11-08T20:54:12.697Z,58.12
2022-11-08T20:56:40.779Z,57.28
2022-11-08T20:59:08.186Z,56.64
2022-11-08T21:01:36.405Z,61.36
2022-11-08T21:04:04.447Z,61.28
2022-11-08T21:06:35.825Z,61.64
2022-11-08T21:09:31.071Z,59.43
2022-11-08T21:11:52.365Z,59.00
2022-11-08T21:14:21.463Z,56.66
2022-11-08T21:17:19.530Z,57.65
2022-11-08T21:19:39.559Z,59.44
2022-11-08T21:22:16.646Z,56.95
2022-11-08T21:24:45.484Z,58.61
2022-11-08T21:27:28.539Z,60.86
2022-11-08T21:29:57.721Z,60.07
2022-11-08T21:32:25.570Z,57.56
2022-11-08T21:34:53.533Z,56.82
2022-11-08T21:37:21.159Z,56.93
2022-11-08T21:39:48.639Z,56.75
2022-11-08T21:42:16.385Z,57.14
2022-11-08T21:44:43.931Z,56.50
2022-11-08T21:47:11.558Z,57.30
2022-11-08T21:49:39.170Z,59.19
2022-11-08T21:52:06.712Z,58.91
2022-11-08T21:54:33.996Z,58.12
2022-11-08T21:57:01.202Z,60.85
2022-11-08T21:59:28.849Z,58.78
2022-11-08T22:01:56.963Z,56.76
2022-11-08T22:04:24.419Z,56.48
2022-11-08T22:06:51.623Z,59.48
2022-11-08T22:09:18.768Z,58.95
2022-11-08T22:11:46.254Z,59.04
2022-11-08T22:14:13.592Z,58.35
2022-11-08T22:16:40.856Z,57.38
2022-11-08T22:19:08.794Z,56.95
2022-11-08T22:21:40.255Z,58.79
2022-11-08T22:24:09.910Z,57.62
2022-11-08T22:26:37.486Z,57.93
2022-11-08T22:29:04.726Z,58.55
2022-11-08T22:31:32.377Z,59.25
2022-11-08T22:33:59.531Z,60.01
2022-11-08T22:36:27.703Z,62.77
2022-11-08T22:38:55.341Z,64.13
2022-11-08T22:41:23.193Z,60.42
2022-11-08T22:43:50.978Z,62.03
2022-11-08T22:46:19.592Z,62.23
2022-11-08T22:48:46.847Z,63.85
2022-11-08T22:51:13.995Z,61.59
2022-11-08T22:53:41.583Z,60.94
2022-11-08T22:56:11.447Z,62.44
2022-11-08T22:58:39.458Z,59.98
2022-11-08T23:01:11.437Z,60.50
2022-11-08T23:03:38.652Z,60.25
2022-11-08T23:06:05.933Z,60.23
2022-11-08T23:08:33.369Z,60.10
2022-11-08T23:11:19.292Z,63.75
2022-11-08T23:14:05.426Z,64.11
2022-11-08T23:16:35.038Z,62.92
2022-11-08T23:19:22.325Z,64.62
2022-11-08T23:22:10.190Z,63.44
2022-11-08T23:24:37.963Z,64.39
2022-11-08T23:27:23.794Z,65.30
2022-11-08T23:30:10.092Z,65.67
2022-11-08T23:32:39.596Z,65.11
2022-11-08T23:35:08.227Z,64.59
2022-11-08T23:37:35.381Z,62.65
2022-11-08T23:40:20.987Z,64.19
2022-11-08T23:43:07.257Z,62.26
2022-11-08T23:45:34.381Z,63.56
2022-11-08T23:48:01.984Z,61.48
2022-11-08T23:50:29.154Z,63.71
2022-11-08T23:52:56.271Z,62.86
2022-11-08T23:55:23.653Z,64.43
2022-11-08T23:57:50.752Z,63.63
